Time;durP1;ratioP1;P1;durP2;ratioP2;P2;SDS_P1;SDS_P2;PMS_P1;PMS_P2;Temp;Humidity;BMP_temperature;BMP_pressure;BME280_temperature;BME280_humidity;BME280_pressure;Samples;Min_cycle;Max_cycle;Signal;HPM_P1;HPM_P2
2022/02/08 00:00:31;;;;;;;5.53;1.47;;;2.90;74.10;;;3.09;60.60;99007.28;4969162;28;20230;-42
2022/02/08 00:03:02;;;;;;;4.27;1.70;;;3.00;74.30;;;3.06;61.26;99005.66;4967742;28;20057;-42
2022/02/08 00:05:30;;;;;;;7.40;2.30;;;3.00;73.70;;;3.08;60.56;99008.22;4968164;28;20057;-41
2022/02/08 00:07:58;;;;;;;5.00;1.73;;;3.00;73.70;;;3.10;60.47;99014.25;4968157;28;20063;-42
2022/02/08 00:10:27;;;;;;;2.50;1.40;;;3.00;72.90;;;3.10;60.43;99012.47;4968384;28;20065;-42
2022/02/08 00:12:57;;;;;;;3.30;1.50;;;3.10;73.70;;;3.15;60.79;99020.97;4967716;28;20238;-42
2022/02/08 00:15:27;;;;;;;3.67;1.40;;;3.10;73.40;;;3.24;60.96;99021.41;4967420;28;20066;-42
2022/02/08 00:17:55;;;;;;;10.60;2.77;;;3.20;73.90;;;3.25;60.43;99021.31;4968020;28;20053;-41
2022/02/08 00:20:23;;;;;;;6.07;1.90;;;3.20;73.50;;;3.31;60.55;99018.34;4967382;28;20065;-42
2022/02/08 00:22:51;;;;;;;5.53;1.70;;;3.30;73.60;;;3.38;60.90;99013.63;4967527;28;20229;-42
2022/02/08 00:25:19;;;;;;;4.03;1.60;;;3.30;73.60;;;3.40;60.06;99011.75;4968104;28;20055;-41
2022/02/08 00:27:47;;;;;;;3.73;1.63;;;3.30;73.50;;;3.43;60.45;99016.00;4968522;28;20047;-42
2022/02/08 00:30:17;;;;;;;4.47;1.93;;;3.30;73.40;;;3.45;60.68;99016.78;4968580;28;20054;-42
2022/02/08 00:32:45;;;;;;;4.23;1.50;;;3.30;73.60;;;3.44;60.18;99023.81;4967621;28;20233;-41
2022/02/08 00:35:14;;;;;;;5.43;1.43;;;3.30;74.00;;;3.43;60.19;99024.78;4966942;28;20070;-42
2022/02/08 00:37:42;;;;;;;3.80;1.80;;;3.30;74.00;;;3.43;60.47;99019.50;4967577;28;20051;-42
2022/02/08 00:40:11;;;;;;;8.53;1.70;;;3.30;73.70;;;3.42;60.27;99023.06;4982721;28;20064;-41
2022/02/08 00:42:40;;;;;;;4.57;1.60;;;3.30;73.40;;;3.40;60.55;99026.72;4968624;28;20134;-42
2022/02/08 00:47:49;;;;;;;6.17;2.63;;;3.30;73.60;;;3.44;60.69;99025.63;4967994;28;20388;-42
2022/02/08 00:50:17;;;;;;;;;;;3.30;74.00;;;3.42;60.68;99027.50;4969036;28;20055;-42
2022/02/08 00:52:45;;;;;;;5.87;1.67;;;3.20;73.20;;;3.46;60.72;99026.38;4967765;28;19918;-41
2022/02/08 00:55:14;;;;;;;6.10;1.63;;;3.20;74.10;;;3.44;60.55;99030.88;4984951;28;20268;-41
2022/02/08 00:57:45;;;;;;;6.20;1.80;;;3.30;74.00;;;3.46;60.52;99027.22;4986258;28;20050;-41
2022/02/08 01:00:14;;;;;;;5.90;1.70;;;3.30;73.90;;;3.51;60.70;99038.38;4971023;28;20065;-41
2022/02/08 01:02:42;;;;;;;4.23;1.30;;;3.30;73.90;;;3.50;60.48;99038.44;4971171;28;20063;-41
2022/02/08 01:05:14;;;;;;;3.03;1.43;;;3.30;74.00;;;3.51;60.17;99034.91;4986358;28;20050;-41
2022/02/08 01:07:44;;;;;;;7.30;1.77;;;3.30;74.00;;;3.47;60.35;99039.47;4985852;28;20268;-41
2022/02/08 01:10:12;;;;;;;4.53;1.10;;;3.30;73.20;;;3.47;60.35;99041.22;4971569;28;20460;-41
2022/02/08 01:12:40;;;;;;;4.23;1.60;;;3.20;73.80;;;3.47;60.29;99028.94;4970567;28;20092;-41
2022/02/08 01:15:09;;;;;;;5.17;1.40;;;3.20;74.00;;;3.47;60.40;99033.34;4984281;28;20065;-42
2022/02/08 01:17:38;;;;;;;4.10;1.47;;;3.20;73.90;;;3.45;60.26;99036.06;4971388;28;20059;-41
2022/02/08 01:20:12;;;;;;;3.87;1.40;;;3.20;73.90;;;3.45;60.39;99032.56;4969408;28;20054;-41
2022/02/08 01:22:41;;;;;;;7.17;1.17;;;3.20;73.80;;;3.42;60.74;99033.59;4969835;28;20038;-41
2022/02/08 01:25:26;;;;;;;5.60;1.93;;;3.30;73.60;;;3.42;60.60;99027.50;4985429;28;20065;-42
2022/02/08 01:27:58;;;;;;;2.77;1.57;;;3.30;73.70;;;3.44;60.64;99026.47;4971378;28;20046;-41
2022/02/08 01:30:42;;;;;;;7.03;1.57;;;3.30;74.00;;;3.44;60.25;99026.47;4970203;28;20054;-41
2022/02/08 01:33:40;;;;;;;2.53;1.40;;;3.30;73.80;;;3.47;60.37;99034.22;4971145;28;20399;-41
2022/02/08 01:41:43;;;;;;;5.80;2.37;;;3.30;74.70;;;3.46;60.48;99042.19;4970825;28;20055;-41
2022/02/08 01:51:57;;;;;;;5.40;1.50;;;3.20;74.50;;;3.40;60.61;99032.00;4970325;28;20049;-41
2022/02/08 01:54:27;;;;;;;4.20;1.30;;;3.10;73.80;;;3.37;60.68;99026.88;4985984;28;20055;-41
2022/02/08 01:56:56;;;;;;;7.80;1.57;;;3.10;74.30;;;3.34;60.28;99025.25;4985588;28;20245;-42
2022/02/08 01:59:26;;;;;;;3.70;1.70;;;3.10;75.50;;;3.29;60.50;99025.50;4984780;28;20042;-41
2022/02/08 02:01:54;;;;;;;5.30;1.57;;;3.10;74.30;;;3.29;60.31;99019.38;4985927;28;20077;-41
2022/02/08 02:04:22;;;;;;;4.03;1.70;;;3.10;74.50;;;3.28;60.87;99025.59;4969413;28;20054;-41
2022/02/08 02:06:51;;;;;;;4.27;1.50;;;3.10;74.60;;;3.26;60.57;99024.84;4985228;28;20059;-41
2022/02/08 02:09:26;;;;;;;4.23;1.87;;;3.00;74.30;;;3.28;60.79;99030.88;4984510;28;20374;-41
2022/02/08 02:11:59;;;;;;;3.17;1.10;;;3.10;74.60;;;3.28;60.67;99023.81;4985618;28;20348;-41
2022/02/08 02:14:27;;;;;;;6.90;1.37;;;3.10;74.60;;;3.27;60.53;99030.00;4969897;28;20051;-41
2022/02/08 02:16:59;;;;;;;4.37;0.90;;;3.10;74.60;;;3.22;60.77;99025.91;4970884;28;20058;-38
2022/02/08 02:19:29;;;;;;;5.23;1.63;;;3.00;74.50;;;3.20;60.57;99025.13;4984548;28;20050;-38
2022/02/08 02:22:02;;;;;;;6.47;1.50;;;3.00;74.60;;;3.23;60.65;99022.34;4984423;28;20059;-38
2022/02/08 02:24:31;;;;;;;4.47;1.30;;;3.00;75.80;;;3.24;61.04;99021.41;4968239;28;20059;-38
2022/02/08 02:27:00;;;;;;;2.93;1.30;;;3.00;75.20;;;3.23;60.78;99023.19;4984070;28;20246;-38
2022/02/08 02:29:30;;;;;;;8.13;1.83;;;3.00;75.50;;;3.20;60.88;99010.22;4967166;28;20055;-38
2022/02/08 02:32:01;;;;;;;3.20;1.00;;;2.90;75.80;;;3.17;61.02;99018.25;4969304;28;20054;-38
2022/02/08 02:34:31;;;;;;;5.20;1.90;;;2.90;76.00;;;3.17;61.09;99014.78;4968951;28;20069;-38
2022/02/08 02:37:00;;;;;;;4.03;1.33;;;2.90;75.80;;;3.15;61.14;99015.69;4983347;28;20062;-38
2022/02/08 02:39:30;;;;;;;3.83;1.83;;;2.90;75.90;;;3.12;61.17;99007.13;4985555;28;20058;-38
2022/02/08 02:42:11;;;;;;;7.23;1.50;;;2.80;75.90;;;3.07;61.07;99010.00;4983904;28;20054;-37
2022/02/08 02:44:41;;;;;;;4.73;1.50;;;2.90;75.70;;;3.09;61.38;99012.56;4986368;28;20068;-38
2022/02/08 02:47:10;;;;;;;2.33;1.40;;;2.90;75.80;;;3.05;61.05;99009.22;4984979;28;20059;-37
2022/02/08 02:49:38;;;;;;;9.87;1.97;;;2.80;75.70;;;3.05;61.30;99013.66;4984089;28;20066;-38
2022/02/08 02:52:09;;;;;;;7.20;1.70;;;2.80;75.60;;;3.06;61.15;99016.19;4984794;28;20058;-38
2022/02/08 02:54:43;;;;;;;4.15;1.52;;;2.80;75.90;;;3.05;61.19;99022.38;4984501;28;20073;-38
2022/02/08 02:57:16;;;;;;;3.40;1.90;;;2.80;75.70;;;3.04;60.98;99019.81;4984394;28;20068;-38
2022/02/08 02:59:48;;;;;;;7.70;1.50;;;2.80;75.50;;;3.07;60.91;99020.53;4984506;28;20050;-38
2022/02/08 03:05:21;;;;;;;3.77;1.80;;;2.80;75.20;;;3.04;61.29;99011.94;4984499;28;20058;-41
2022/02/08 03:18:58;;;;;;;4.03;1.33;;;3.00;75.30;;;3.15;61.19;99009.59;4983825;28;20356;-41
2022/02/08 03:21:26;;;;;;;5.23;1.50;;;2.90;75.30;;;3.18;61.54;99014.72;4967847;28;20061;-41
2022/02/08 03:23:56;;;;;;;4.30;2.10;;;3.00;75.40;;;3.15;60.90;99017.50;4968200;28;20047;-41
2022/02/08 03:26:24;;;;;;;12.00;2.10;;;3.00;75.00;;;3.15;61.19;99023.59;4968091;28;20061;-41
2022/02/08 03:29:02;;;;;;;3.07;1.90;;;3.00;74.70;;;3.10;60.99;99027.41;4984532;28;20047;-41
2022/02/08 03:31:34;;;;;;;5.90;2.23;;;2.90;74.70;;;3.10;60.70;99028.28;4952355;28;20264;-41
2022/02/08 03:34:03;;;;;;;2.73;1.23;;;3.00;74.80;;;3.12;61.19;99030.78;4968358;28;20039;-41
2022/02/08 03:36:35;;;;;;;5.40;1.80;;;2.90;75.10;;;3.10;60.86;99022.13;4967971;28;20077;-38
2022/02/08 03:41:45;;;;;;;4.57;1.80;;;3.00;74.60;;;3.11;60.74;99027.31;4981630;28;20054;-38
2022/02/08 03:44:20;;;;;;;3.20;1.50;;;3.00;74.60;;;3.07;60.93;99023.16;4968496;28;20063;-38
2022/02/08 03:46:54;;;;;;;6.30;1.63;;;3.00;74.50;;;3.10;61.05;99028.28;4983363;28;20058;-38
2022/02/08 03:49:23;;;;;;;3.83;1.67;;;2.90;75.10;;;3.12;60.78;99031.66;4967346;28;20058;-38
2022/02/08 03:51:58;;;;;;;4.73;1.53;;;2.90;75.30;;;3.16;61.31;99029.72;4968434;28;20341;-38
2022/02/08 03:54:29;;;;;;;6.65;1.90;;;3.00;74.90;;;3.17;61.06;99030.56;4969265;28;20049;-38
2022/02/08 03:56:57;;;;;;;6.60;2.30;;;3.00;74.80;;;3.19;61.08;99028.72;4967970;28;20632;-38
2022/02/08 03:59:26;;;;;;;6.73;2.07;;;3.00;75.00;;;3.19;60.83;99031.34;4966528;28;20248;-38
2022/02/08 04:04:36;;;;;;;6.50;1.70;;;3.00;74.90;;;3.12;60.96;99034.31;4967390;28;20053;-38
2022/02/08 04:07:13;;;;;;;4.37;1.33;;;3.00;74.70;;;3.15;60.74;99034.13;4970728;28;20069;-38
2022/02/08 04:09:42;;;;;;;4.97;2.27;;;3.00;75.60;;;3.12;60.99;99029.03;4969119;28;20053;-38
2022/02/08 04:12:21;;;;;;;5.23;1.83;;;3.00;74.70;;;3.08;60.90;99030.13;4967590;28;20057;-39
2022/02/08 04:15:10;;;;;;;3.63;1.80;;;3.00;74.70;;;3.07;61.13;99025.78;4972190;28;20058;-38
2022/02/08 04:18:41;;;;;;;5.67;1.50;;;3.00;74.80;;;3.07;61.22;99033.69;4970936;28;20065;-38
2022/02/08 04:31:36;;;;;;;6.00;1.60;;;2.80;75.90;;;3.12;61.54;99025.53;4976144;28;20344;-38
2022/02/08 04:39:46;;;;;;;5.17;1.73;;;2.90;76.20;;;3.10;61.71;99030.03;4970134;28;20055;-38
2022/02/08 04:42:30;;;;;;;3.53;1.63;;;2.90;76.10;;;3.08;61.29;99039.78;4972391;28;20055;-38
2022/02/08 04:47:37;;;;;;;2.77;1.53;;;2.80;76.00;;;3.07;61.24;99038.94;4972292;28;20399;-38
2022/02/08 04:50:05;;;;;;;7.20;2.17;;;2.90;75.80;;;3.06;61.12;99037.22;4972062;28;20058;-38
2022/02/08 04:52:34;;;;;;;6.80;2.00;;;3.00;75.10;;;3.11;61.31;99043.09;4970721;28;20256;-38
2022/02/08 04:55:35;;;;;;;3.90;1.60;;;3.10;75.10;;;3.19;61.63;99047.13;4971377;28;20069;-38
2022/02/08 04:58:30;;;;;;;4.83;1.70;;;3.10;75.30;;;3.20;61.31;99038.28;4971645;28;20053;-38
2022/02/08 05:01:15;;;;;;;6.50;1.43;;;3.10;75.30;;;3.21;61.54;99042.63;4970201;28;20043;-38
2022/02/08 05:29:38;;;;;;;7.03;1.93;;;3.10;77.30;;;3.32;62.39;99013.97;4973469;28;20341;-38
2022/02/08 05:44:55;;;;;;;7.13;3.67;;;3.30;78.10;;;3.50;62.85;99026.13;4972739;28;20644;-38
2022/02/08 05:47:23;;;;;;;6.57;2.93;;;3.30;78.20;;;3.53;62.41;99031.25;4972833;28;20062;-38
2022/02/08 05:50:04;;;;;;;9.03;4.57;;;3.40;78.00;;;3.55;62.83;99025.91;4970193;28;20120;-38
2022/02/08 05:55:00;;;;;;;10.03;3.53;;;3.50;78.10;;;3.63;62.50;99028.97;4969652;28;20062;-38
2022/02/08 05:57:28;;;;;;;4.67;1.90;;;3.50;78.10;;;3.63;62.61;99021.06;4969098;28;20364;-38
2022/02/08 05:59:56;;;;;;;8.70;2.97;;;3.50;77.30;;;3.65;62.53;99028.88;4970698;28;20073;-38
2022/02/08 06:02:24;;;;;;;4.97;2.67;;;3.60;77.00;;;3.67;62.28;99017.31;4970197;28;20114;-39
2022/02/08 06:05:17;;;;;;;7.20;2.27;;;3.50;77.10;;;3.65;62.06;99013.91;4968097;28;20059;-38
2022/02/08 06:07:45;;;;;;;5.72;2.45;;;3.50;76.80;;;3.64;62.49;99017.47;4971291;28;20507;-39
2022/02/08 06:10:14;;;;;;;11.53;3.33;;;3.60;76.60;;;3.67;61.79;99022.59;4970217;28;20069;-39
2022/02/08 06:12:49;;;;;;;6.73;3.50;;;3.50;76.80;;;3.64;61.77;99024.53;4970608;28;20054;-38
2022/02/08 06:15:25;;;;;;;9.07;2.30;;;3.50;76.70;;;3.60;61.95;99028.25;4968607;28;20065;-38
2022/02/08 06:17:58;;;;;;;4.33;2.03;;;3.50;76.70;;;3.62;62.16;99035.13;4969872;28;20058;-38
2022/02/08 06:20:28;;;;;;;11.10;3.00;;;3.50;76.70;;;3.59;61.69;99034.44;4966994;28;20069;-37
2022/02/08 06:22:56;;;;;;;8.57;3.67;;;3.50;76.40;;;3.63;62.27;99033.38;4970379;28;20341;-37
2022/02/08 06:25:24;;;;;;;6.33;3.33;;;3.50;76.50;;;3.63;61.62;99025.47;4969283;28;20276;-38
2022/02/08 06:27:53;;;;;;;7.73;3.23;;;3.50;76.30;;;3.66;61.80;99026.13;4970392;28;20046;-38
2022/02/08 06:30:22;;;;;;;8.10;2.53;;;3.50;76.50;;;3.68;61.67;99033.97;4969254;28;20415;-38
2022/02/08 06:32:56;;;;;;;5.03;2.97;;;3.50;76.40;;;3.67;61.78;99022.59;4969892;28;20067;-38
2022/02/08 06:35:27;;;;;;;9.40;4.13;;;3.50;76.20;;;3.69;61.65;99018.06;4968333;28;20054;-38
2022/02/08 06:37:58;;;;;;;6.43;2.87;;;3.60;76.30;;;3.73;61.90;99026.66;4970397;28;20379;-38
2022/02/08 06:40:28;;;;;;;11.00;2.80;;;3.50;76.50;;;3.73;62.17;99027.50;4969014;28;20066;-38
2022/02/08 06:42:59;;;;;;;4.60;2.50;;;3.50;76.60;;;3.75;61.66;99028.28;4969585;28;20051;-37
2022/02/08 06:45:27;;;;;;;6.30;2.07;;;3.50;76.70;;;3.77;62.23;99032.63;4969344;28;20356;-38
2022/02/08 06:48:00;;;;;;;10.23;2.47;;;3.50;76.30;;;3.77;61.58;99040.53;4970551;28;20050;-37
2022/02/08 06:50:28;;;;;;;4.03;1.80;;;3.60;76.40;;;3.78;62.25;99040.44;4968512;28;20065;-38
2022/02/08 06:52:56;;;;;;;7.20;2.33;;;3.60;76.20;;;3.80;61.93;99038.56;4969462;28;20059;-38
2022/02/08 06:55:26;;;;;;;6.10;2.50;;;3.70;76.00;;;3.82;61.60;99043.72;4969480;28;20248;-38
2022/02/08 06:58:04;;;;;;;5.60;3.10;;;3.70;76.20;;;3.83;62.13;99046.28;4969921;28;20064;-38
2022/02/08 07:00:40;;;;;;;4.77;2.53;;;3.70;76.00;;;3.86;61.85;99053.19;4968802;28;20155;-38
2022/02/08 07:03:16;;;;;;;8.40;2.00;;;3.70;76.40;;;3.89;61.70;99051.22;4985585;28;20055;-38
2022/02/08 07:05:44;;;;;;;5.05;3.10;;;3.70;76.40;;;3.91;61.85;99059.88;4968214;28;20054;-38
2022/02/08 07:08:13;;;;;;;5.23;2.67;;;3.70;76.60;;;3.92;61.93;99061.59;4967894;28;20047;-38
2022/02/08 07:10:44;;;;;;;5.40;2.20;;;3.70;76.20;;;3.96;62.04;99054.38;4984869;28;20054;-38
2022/02/08 07:13:12;;;;;;;8.00;2.77;;;3.80;76.40;;;3.94;61.57;99050.97;4968629;28;20059;-38
2022/02/08 07:15:40;;;;;;;4.53;1.97;;;3.80;75.90;;;3.99;61.69;99048.91;4968638;28;20059;-38
2022/02/08 07:18:08;;;;;;;6.03;2.27;;;3.80;76.10;;;4.02;61.53;99043.50;4968389;28;20086;-38
2022/02/08 07:20:40;;;;;;;10.70;2.60;;;3.80;76.00;;;4.03;61.92;99049.59;4982663;28;20387;-38
2022/02/08 07:23:08;;;;;;;4.87;2.90;;;3.80;76.20;;;4.03;61.40;99055.75;4968087;28;20050;-38
2022/02/08 07:25:37;;;;;;;7.10;2.50;;;3.80;76.40;;;4.05;61.92;99056.50;4964495;28;20053;-38
2022/02/08 07:28:05;;;;;;;4.33;2.70;;;3.90;76.70;;;4.03;61.96;99052.25;4968526;28;20352;-38
2022/02/08 07:30:36;;;;;;;4.90;2.40;;;3.90;75.90;;;4.06;61.20;99054.72;4983735;28;20076;-39
2022/02/08 07:33:05;;;;;;;9.10;2.97;;;3.90;75.90;;;4.03;61.57;99054.88;4968986;28;20046;-38
2022/02/08 07:38:19;;;;;;;7.73;3.00;;;3.90;75.40;;;4.09;61.81;99059.78;4977171;28;20060;-38
2022/02/08 07:43:20;;;;;;;7.17;3.70;;;3.90;75.80;;;4.08;61.43;99058.94;4987790;28;20049;-38
2022/02/08 07:46:07;;;;;;;5.13;2.33;;;3.90;75.90;;;4.10;61.06;99051.81;4991324;28;20057;-38
2022/02/08 07:48:35;;;;;;;7.43;2.83;;;3.90;76.00;;;4.14;61.23;99052.50;4987056;28;20058;-38
2022/02/08 07:51:04;;;;;;;10.20;3.23;;;4.00;75.70;;;4.12;61.72;99054.38;4986681;28;20325;-38
2022/02/08 07:53:32;;;;;;;7.03;2.80;;;4.00;75.50;;;4.17;61.68;99059.38;4987537;28;20065;-38
2022/02/08 07:56:00;;;;;;;8.27;4.17;;;4.00;75.90;;;4.22;61.58;99058.19;4986466;28;20587;-38
2022/02/08 07:58:29;;;;;;;7.50;3.90;;;4.10;75.90;;;4.23;61.40;99045.88;4987465;28;20370;-38
2022/02/08 08:00:57;;;;;;;9.00;4.17;;;4.10;75.70;;;4.30;61.59;99052.47;4986367;28;20054;-38
2022/02/08 08:03:25;;;;;;;7.37;3.73;;;4.20;75.30;;;4.32;61.34;99045.31;4987298;28;20355;-38
2022/02/08 08:05:53;;;;;;;3.37;2.10;;;4.20;75.30;;;4.29;61.53;99064.81;4987316;28;20072;-38
2022/02/08 08:08:21;;;;;;;8.43;2.57;;;4.20;74.60;;;4.31;61.06;99060.28;4982727;28;20054;-37
2022/02/08 08:10:50;;;;;;;7.37;2.37;;;4.30;75.20;;;4.37;61.25;99047.72;4975166;28;20054;-37
2022/02/08 08:13:21;;;;;;;7.10;2.63;;;4.30;75.20;;;4.33;61.32;99054.94;4979359;28;20250;-37
2022/02/08 08:15:55;;;;;;;8.07;2.67;;;4.20;75.10;;;4.35;61.34;99050.44;4978516;28;20059;-37
2022/02/08 08:21:02;;;;;;;8.53;2.13;;;4.30;75.20;;;4.40;60.87;99050.16;4978679;28;20057;-37
2022/02/08 08:23:30;;;;;;;9.30;2.70;;;4.30;75.40;;;4.42;61.73;99049.16;4979101;28;20039;-37
2022/02/08 08:25:59;;;;;;;6.17;1.87;;;4.30;75.10;;;4.46;61.49;99040.13;4974663;28;20054;-37
2022/02/08 08:28:27;;;;;;;8.77;3.07;;;4.40;75.20;;;4.47;61.20;99035.69;4976845;28;20252;-37
2022/02/08 08:30:56;;;;;;;6.20;3.23;;;4.40;74.40;;;4.50;60.85;99035.53;4978900;28;20057;-37
2022/02/08 08:33:24;;;;;;;6.93;2.77;;;4.50;74.40;;;4.56;61.46;99026.41;4979907;28;20371;-37
2022/02/08 08:36:08;;;;;;;7.17;3.03;;;4.50;74.80;;;4.58;60.97;99028.00;4977792;28;20051;-37
2022/02/08 08:38:37;;;;;;;11.27;4.07;;;4.50;74.70;;;4.63;61.35;99030.38;4978000;28;20218;-37
2022/02/08 08:41:25;;;;;;;7.60;3.00;;;4.60;75.10;;;4.71;61.56;99029.00;4976083;28;20053;-37
2022/02/08 08:52:28;;;;;;;6.20;2.20;;;4.70;74.30;;;4.80;60.76;99034.66;4961508;28;20338;-37
2022/02/08 08:54:58;;;;;;;7.20;1.73;;;4.70;74.30;;;4.82;61.31;99032.78;4976831;28;20057;-37
2022/02/08 08:57:28;;;;;;;5.70;2.00;;;4.70;74.60;;;4.81;60.90;99025.78;4976742;28;20095;-37
2022/02/08 08:59:56;;;;;;;8.43;2.50;;;4.70;74.60;;;4.82;60.81;99032.78;4976148;28;20050;-37
2022/02/08 09:02:25;;;;;;;3.33;1.47;;;4.70;74.90;;;4.82;60.55;99036.25;4977902;28;20048;-37
2022/02/08 09:04:55;;;;;;;3.80;1.77;;;4.70;74.80;;;4.85;60.56;99041.38;4980899;28;20054;-37
2022/02/08 09:07:24;;;;;;;8.73;3.13;;;4.70;75.10;;;4.86;60.56;99037.75;4978773;28;20061;-37
2022/02/08 09:09:58;;;;;;;6.33;1.70;;;4.70;75.10;;;4.90;61.02;99027.88;4977555;28;20057;-37
2022/02/08 09:13:02;;;;;;;6.23;2.57;;;4.80;75.10;;;4.91;61.24;99029.59;4976012;28;20050;-37
2022/02/08 09:21:13;;;;;;;5.53;2.00;;;5.00;75.20;;;5.10;61.33;99024.91;4978275;28;20060;-37
2022/02/08 09:29:34;;;;;;;5.43;1.60;;;5.30;74.70;;;5.32;61.68;99010.38;4977352;28;20068;-37
2022/02/08 09:32:12;;;;;;;8.10;2.80;;;5.40;74.90;;;5.37;60.81;99018.88;4989981;28;20052;-37
2022/02/08 09:34:43;;;;;;;7.50;2.10;;;5.50;74.60;;;5.43;61.78;99005.28;4989642;28;20223;-37
2022/02/08 09:37:14;;;;;;;6.23;2.10;;;5.50;74.90;;;5.50;62.04;99003.94;4991704;28;20046;-37
2022/02/08 09:39:45;;;;;;;9.30;3.93;;;5.60;75.00;;;5.58;61.36;98998.19;4989313;28;20050;-37
2022/02/08 09:42:14;;;;;;;6.03;1.97;;;5.60;75.00;;;5.68;61.71;99001.09;4989471;28;20348;-37
2022/02/08 09:44:43;;;;;;;8.90;3.30;;;5.80;74.80;;;5.79;61.19;99005.72;4989790;28;20057;-37
2022/02/08 09:47:16;;;;;;;6.90;2.07;;;5.80;75.00;;;5.89;61.70;98998.88;4988738;28;20064;-37
2022/02/08 09:49:53;;;;;;;4.50;1.73;;;6.00;75.00;;;5.99;61.69;99001.81;4989254;28;20054;-37
2022/02/08 09:52:25;;;;;;;6.83;3.30;;;6.10;74.80;;;6.11;61.75;98999.22;4990244;28;20054;-38
2022/02/08 09:54:53;;;;;;;6.50;1.97;;;6.30;74.80;;;6.21;61.11;99003.91;4989268;28;20061;-37
2022/02/08 09:57:21;;;;;;;5.43;2.20;;;6.30;74.60;;;6.15;61.75;99013.09;4989858;28;20051;-37
2022/02/08 09:59:50;;;;;;;6.73;2.53;;;6.40;73.80;;;6.26;61.67;99020.31;4988640;28;20062;-37
2022/02/08 10:02:20;;;;;;;6.40;1.80;;;6.50;74.70;;;6.33;61.38;99026.91;4988565;28;20065;-37
2022/02/08 10:04:59;;;;;;;9.10;2.30;;;6.60;73.90;;;6.46;61.50;99027.81;4988739;28;20054;-37
2022/02/08 10:07:28;;;;;;;6.77;1.97;;;6.70;74.80;;;6.59;61.70;99035.78;4989439;28;20061;-38
2022/02/08 10:09:56;;;;;;;6.63;2.27;;;6.80;74.70;;;6.59;61.06;99041.09;4988489;28;20251;-38
2022/02/08 10:12:30;;;;;;;7.30;2.50;;;6.80;74.30;;;6.69;61.48;99038.66;4971952;28;20140;-38
2022/02/08 10:21:13;;;;;;;4.40;1.73;;;6.90;74.00;;;6.81;60.91;99040.47;4986493;28;20055;-37
2022/02/08 10:23:05;;;;;;;6.63;2.40;;;6.90;74.40;;;6.90;61.62;99039.00;4990150;28;20239;-38
2022/02/08 10:28:12;;;;;;;6.97;1.90;;;7.20;74.70;;;7.12;61.34;99038.41;4989008;28;20054;-38
2022/02/08 10:38:49;;;;;;;4.93;2.63;;;7.70;74.30;;;7.49;61.23;99034.03;4990332;28;20069;-37
2022/02/08 10:41:23;;;;;;;4.57;1.67;;;7.70;74.00;;;7.48;60.55;99036.78;4985513;28;20215;-37
2022/02/08 10:44:05;;;;;;;8.47;2.37;;;7.70;73.30;;;7.53;61.06;99036.47;4968678;28;20066;-37
2022/02/08 10:46:35;;;;;;;5.63;2.00;;;7.70;73.50;;;7.60;61.19;99025.34;4962409;28;20795;-37
2022/02/08 10:49:07;;;;;;;4.17;1.80;;;7.80;74.20;;;7.63;60.85;99032.22;4968646;28;20042;-37
2022/02/08 10:51:58;;;;;;;6.47;3.20;;;7.80;73.40;;;7.72;61.40;99028.91;4968708;28;20053;-37
2022/02/08 10:54:35;;;;;;;6.17;1.63;;;8.00;74.40;;;7.77;61.07;99032.06;4969571;28;20059;-37
2022/02/08 10:57:15;;;;;;;5.37;1.60;;;8.10;74.30;;;7.79;60.74;99029.31;4968189;28;20089;-38
2022/02/08 10:59:52;;;;;;;5.03;1.40;;;8.10;72.70;;;7.84;60.90;99029.84;4968216;28;20058;-38
2022/02/08 11:02:33;;;;;;;5.50;1.43;;;8.20;73.50;;;7.88;60.44;99023.34;4968362;28;20057;-38
2022/02/08 11:05:13;;;;;;;2.10;1.00;;;8.20;72.90;;;7.80;60.61;99029.22;4968178;28;20054;-38
2022/02/08 11:08:03;;;;;;;2.97;1.50;;;8.30;72.80;;;7.84;60.76;99024.53;4953145;28;20055;-37
2022/02/08 11:16:04;;;;;;;4.10;1.70;;;8.20;72.70;;;7.82;60.79;99018.50;4967356;28;20076;-38
2022/02/08 11:21:20;;;;;;;4.53;1.17;;;8.20;73.00;;;7.91;60.50;99016.97;4967961;28;20058;-38
2022/02/08 11:26:45;;;;;;;4.00;1.80;;;8.40;72.40;;;8.01;60.20;99025.97;4968388;28;20054;-37
2022/02/08 11:30:06;;;;;;;3.23;1.60;;;8.40;71.70;;;7.95;59.88;99021.97;4968094;28;20244;-38
2022/02/08 11:32:29;;;;;;;5.70;1.53;;;8.40;71.30;;;8.15;60.75;99011.72;4960990;28;20264;-37
2022/02/08 11:44:31;;;;;;;2.87;1.50;;;8.40;71.10;;;7.92;59.79;99008.06;4968941;28;20220;-38
2022/02/08 11:46:56;;;;;;;7.43;1.33;;;8.40;70.90;;;8.01;59.87;99020.69;4967985;28;20042;-38
2022/02/08 11:49:45;;;;;;;2.37;1.50;;;8.40;71.20;;;8.06;59.59;99022.03;4967681;28;20057;-38
2022/02/08 12:09:01;;;;;;;4.43;1.60;;;8.60;70.90;;;8.26;59.42;99003.81;4967652;28;20062;-39
2022/02/08 12:27:10;;;;;;;7.20;1.30;;;8.60;71.00;;;8.16;60.16;98997.47;4966936;28;20361;-39
2022/02/08 12:30:15;;;;;;;6.80;1.40;;;8.50;72.10;;;8.34;59.76;98989.97;4967761;28;20054;-38
2022/02/08 12:48:53;;;;;;;7.30;1.93;;;8.60;72.00;;;8.21;60.44;98998.00;4967670;28;20051;-39
2022/02/08 12:54:38;;;;;;;4.90;1.50;;;8.50;73.10;;;8.15;60.91;98986.03;4952127;29;20381;-39
2022/02/08 12:57:27;;;;;;;3.20;1.07;;;8.50;73.20;;;8.24;60.65;99000.44;4938395;29;20067;-39
2022/02/08 13:00:17;;;;;;;2.17;1.30;;;8.50;73.10;;;8.13;61.05;98998.56;4951757;29;20073;-39
2022/02/08 13:03:22;;;;;;;4.23;1.20;;;8.50;73.70;;;8.19;60.73;98997.25;4949756;29;20360;-38
2022/02/08 14:03:07;;;;;;;1.67;1.17;;;8.70;74.30;;;8.40;61.60;98965.63;4976159;28;20055;-38
2022/02/08 14:14:00;;;;;;;4.43;2.13;;;8.70;76.60;;;8.35;62.33;98965.13;4976999;28;20063;-38
2022/02/08 14:17:13;;;;;;;3.67;1.53;;;8.60;76.50;;;8.16;62.60;98958.53;4980559;28;20061;-38
2022/02/08 14:19:40;;;;;;;2.73;1.40;;;8.40;76.70;;;8.37;62.19;98952.59;4980028;28;20062;-37
2022/02/08 14:30:29;;;;;;;3.43;1.13;;;8.50;77.50;;;8.40;62.56;98949.72;4979626;28;20054;-39
2022/02/08 14:58:12;;;;;;;3.50;1.33;;;8.70;77.80;;;8.46;62.65;98930.69;4977735;28;20061;-39
2022/02/08 15:05:27;;;;;;;2.33;1.50;;;8.60;77.80;;;8.47;62.92;98930.59;4978475;28;20046;-39
2022/02/08 15:09:00;;;;;;;3.40;1.27;;;8.70;77.50;;;8.37;62.41;98929.53;4979326;28;20050;-39
2022/02/08 15:11:42;;;;;;;2.33;1.10;;;8.60;76.80;;;8.33;62.97;98941.34;4979089;28;20098;-39
2022/02/08 15:14:10;;;;;;;3.07;1.30;;;8.50;77.70;;;8.30;62.97;98944.25;4977418;28;20057;-39
2022/02/08 15:16:38;;;;;;;4.53;1.37;;;8.40;78.10;;;8.34;62.93;98942.22;4977109;28;20059;-38
2022/02/08 15:19:06;;;;;;;3.27;1.60;;;8.50;78.40;;;8.31;63.20;98940.63;4979051;28;20349;-39
2022/02/08 15:21:36;;;;;;;3.30;1.30;;;8.40;78.60;;;8.27;63.18;98955.91;4980167;28;20446;-39
2022/02/08 15:24:08;;;;;;;5.10;1.60;;;8.40;78.60;;;8.24;62.99;98950.84;4977332;28;20056;-39
2022/02/08 15:26:57;;;;;;;4.90;1.50;;;8.40;79.00;;;8.35;62.97;98960.66;4978648;28;20070;-39
2022/02/08 15:29:27;;;;;;;3.23;1.23;;;8.40;78.80;;;8.37;62.97;98957.88;4980615;28;20050;-39
2022/02/08 15:31:55;;;;;;;6.87;1.50;;;8.40;78.70;;;8.28;63.15;98951.47;4977023;28;20050;-39
2022/02/08 15:34:24;;;;;;;3.43;1.40;;;8.40;78.70;;;8.36;62.88;98956.22;4976450;28;20074;-39
2022/02/08 15:36:52;;;;;;;3.70;1.40;;;8.40;78.80;;;8.17;63.79;98965.53;4976600;28;20058;-39
2022/02/08 15:39:21;;;;;;;2.07;0.90;;;8.40;79.80;;;8.10;64.26;98961.63;4979798;28;20122;-39
2022/02/08 15:41:49;;;;;;;3.97;1.90;;;8.30;80.50;;;8.15;63.92;98966.63;4979935;28;20251;-39
2022/02/08 15:44:21;;;;;;;5.07;1.50;;;8.20;80.70;;;8.15;64.05;98963.97;4978890;28;20066;-39
2022/02/08 15:46:52;;;;;;;1.73;1.20;;;8.30;80.80;;;8.04;64.36;98964.75;4977477;28;20095;-39
2022/02/08 15:49:21;;;;;;;3.43;1.40;;;8.20;81.40;;;8.10;64.26;98966.94;4978238;28;20333;-39
2022/02/08 15:51:57;;;;;;;1.83;1.27;;;8.20;81.30;;;8.09;64.29;98979.34;4979038;28;20398;-39
2022/02/08 15:54:36;;;;;;;5.20;1.53;;;8.20;81.60;;;8.10;64.46;98974.88;4978159;28;20055;-39
2022/02/08 16:07:57;;;;;;;3.03;1.47;;;8.20;81.50;;;8.08;64.31;98975.03;4976984;28;20038;-38
2022/02/08 16:10:32;;;;;;;4.57;1.60;;;8.20;81.60;;;8.15;64.10;98978.06;4978261;28;20051;-39
2022/02/08 16:18:47;;;;;;;5.00;1.47;;;8.20;81.70;;;8.16;64.09;98973.59;4971631;28;20055;-39
2022/02/08 16:27:11;;;;;;;5.17;2.43;;;8.30;81.90;;;8.09;64.25;98978.53;4968165;28;20367;-39
2022/02/08 16:54:19;;;;;;;8.43;2.33;;;8.00;84.00;;;8.09;64.29;99000.56;4966375;28;20047;-38
2022/02/08 16:59:38;;;;;;;4.70;2.27;;;8.10;83.60;;;8.06;64.25;99000.81;4967961;28;20061;-38
2022/02/08 17:02:08;;;;;;;5.00;2.50;;;8.00;83.30;;;8.02;64.08;98995.84;4967008;28;20063;-38